Time;durP1;ratioP1;P1;durP2;ratioP2;P2;SDS_P1;SDS_P2;PMS_P1;PMS_P2;Temp;Humidity;BMP_temperature;BMP_pressure;BME280_temperature;BME280_humidity;BME280_pressure;Samples;Min_cycle;Max_cycle;Signal;HPM_P1;HPM_P2
2023/08/17 00:01:03;;;;;;;25.73;5.70;;;29.50;52.00;;;;;;5048850;28;20323;-72
2023/08/17 00:03:30;;;;;;;25.70;6.00;;;29.50;52.00;;;;;;5047792;28;20610;-72
2023/08/17 00:05:57;;;;;;;42.50;7.40;;;29.50;52.00;;;;;;5046437;28;20232;-72
2023/08/17 00:08:24;;;;;;;31.00;6.23;;;29.50;52.00;;;;;;5042876;28;20299;-72
2023/08/17 00:10:51;;;;;;;41.53;7.47;;;29.50;52.00;;;;;;5039778;28;20279;-72
2023/08/17 00:13:19;;;;;;;27.17;5.80;;;29.40;52.00;;;;;;5047077;28;20286;-72
2023/08/17 00:15:46;;;;;;;26.30;6.43;;;29.40;52.00;;;;;;5048139;28;20293;-72
2023/08/17 00:18:13;;;;;;;44.50;7.43;;;29.40;52.00;;;;;;5047638;28;20239;-72
2023/08/17 00:20:41;;;;;;;24.83;5.57;;;29.40;52.00;;;;;;5048894;28;20239;-72
2023/08/17 00:23:08;;;;;;;25.23;5.30;;;29.40;52.00;;;;;;5048958;28;20214;-72
2023/08/17 00:25:34;;;;;;;24.83;5.53;;;29.40;52.00;;;;;;5048136;28;20200;-72
2023/08/17 00:28:01;;;;;;;53.27;8.10;;;29.40;52.00;;;;;;5046036;28;20240;-72
2023/08/17 00:30:30;;;;;;;25.60;5.80;;;29.30;51.90;;;;;;5046412;28;20208;-73
2023/08/17 00:32:57;;;;;;;23.83;5.70;;;29.40;52.00;;;;;;5048658;28;20599;-72
2023/08/17 00:35:24;;;;;;;25.97;5.80;;;29.30;52.00;;;;;;5047376;28;20291;-72
2023/08/17 00:37:51;;;;;;;37.27;6.93;;;29.40;52.00;;;;;;5045305;28;20250;-72
2023/08/17 00:40:18;;;;;;;28.20;5.80;;;29.40;52.10;;;;;;5044765;28;20755;-72
2023/08/17 00:42:45;;;;;;;29.10;6.00;;;29.30;52.00;;;;;;5047227;28;20649;-72
2023/08/17 00:45:12;;;;;;;39.43;6.83;;;29.30;52.00;;;;;;5048537;28;20714;-72
2023/08/17 00:47:41;;;;;;;25.30;5.57;;;29.30;52.10;;;;;;5048660;28;20206;-72
2023/08/17 00:50:08;;;;;;;19.90;4.90;;;29.30;52.00;;;;;;5048050;28;20204;-72
2023/08/17 00:52:36;;;;;;;40.57;7.37;;;29.30;52.10;;;;;;5047371;28;20315;-73
2023/08/17 00:55:04;;;;;;;24.43;5.43;;;29.30;52.10;;;;;;5047118;28;20815;-72
2023/08/17 00:57:32;;;;;;;23.50;5.50;;;29.30;52.10;;;;;;5047733;28;20204;-72
2023/08/17 01:00:00;;;;;;;27.87;6.30;;;29.30;52.10;;;;;;5047191;28;20319;-72
2023/08/17 01:02:27;;;;;;;19.63;4.97;;;29.20;52.10;;;;;;5048779;28;20310;-72
2023/08/17 01:04:56;;;;;;;49.50;7.93;;;29.20;52.10;;;;;;5045183;28;20255;-72
2023/08/17 01:07:22;;;;;;;28.67;5.87;;;29.20;52.10;;;;;;5047794;28;20196;-72
2023/08/17 01:09:49;;;;;;;30.03;6.07;;;29.30;52.20;;;;;;5048211;28;20755;-72
2023/08/17 01:12:26;;;;;;;24.77;5.70;;;29.20;52.10;;;;;;5068617;28;20206;-72
2023/08/17 01:15:11;;;;;;;37.03;6.87;;;29.30;52.20;;;;;;5048798;28;20207;-72
2023/08/17 01:17:48;;;;;;;33.50;6.33;;;29.20;52.10;;;;;;5047899;28;20556;-72
2023/08/17 01:20:18;;;;;;;37.13;6.43;;;29.20;52.10;;;;;;5046991;28;20219;-72
2023/08/17 01:22:48;;;;;;;31.03;6.23;;;29.20;52.10;;;;;;5048330;28;20213;-72
2023/08/17 01:25:16;;;;;;;27.63;5.83;;;29.20;52.10;;;;;;5046763;28;20263;-73
2023/08/17 01:27:47;;;;;;;29.00;5.60;;;29.20;52.10;;;;;;5046695;28;20204;-73
2023/08/17 01:30:17;;;;;;;25.70;5.53;;;29.20;52.10;;;;;;5046057;28;20633;-74
2023/08/17 01:32:50;;;;;;;31.73;6.10;;;29.20;52.80;;;;;;5041672;28;20287;-74
2023/08/17 01:35:23;;;;;;;25.10;5.40;;;29.20;52.20;;;;;;5043514;28;20675;-72
2023/08/17 01:37:54;;;;;;;23.80;5.57;;;29.20;52.20;;;;;;5045263;28;20754;-73
2023/08/17 01:40:23;;;;;;;26.83;5.90;;;29.10;52.10;;;;;;5045955;28;20268;-73
2023/08/17 01:42:52;;;;;;;27.23;5.83;;;29.10;52.10;;;;;;5046764;28;20707;-73
2023/08/17 01:45:19;;;;;;;29.80;6.23;;;29.10;52.20;;;;;;5048156;28;20304;-73
2023/08/17 01:47:46;;;;;;;34.80;6.33;;;29.10;52.20;;;;;;5046597;28;20290;-73
2023/08/17 01:50:13;;;;;;;26.20;5.73;;;29.10;52.20;;;;;;5046387;28;20311;-72
2023/08/17 01:52:40;;;;;;;27.40;5.80;;;29.10;52.20;;;;;;5047510;28;20199;-72
2023/08/17 01:55:08;;;;;;;42.83;7.30;;;29.10;52.20;;;;;;5045210;28;20203;-72
2023/08/17 01:57:36;;;;;;;22.10;5.33;;;29.10;52.30;;;;;;5047652;28;20648;-73
2023/08/17 02:00:04;;;;;;;32.40;6.23;;;29.10;52.20;;;;;;5047221;28;20640;-73
2023/08/17 02:02:31;;;;;;;24.50;5.50;;;29.10;52.30;;;;;;5048087;28;20215;-73
2023/08/17 02:04:58;;;;;;;31.30;6.10;;;29.00;52.20;;;;;;5046802;28;20200;-73
2023/08/17 02:07:25;;;;;;;21.87;5.10;;;29.00;52.20;;;;;;5046577;28;20283;-72
2023/08/17 02:09:52;;;;;;;31.80;6.27;;;29.10;52.30;;;;;;5046266;28;20294;-72
2023/08/17 02:12:19;;;;;;;38.40;6.67;;;29.00;52.20;;;;;;5044793;28;20192;-73
2023/08/17 02:14:48;;;;;;;23.83;5.73;;;29.00;52.20;;;;;;5047560;28;20212;-72
2023/08/17 02:17:16;;;;;;;24.70;5.60;;;29.00;52.30;;;;;;5047298;28;20324;-72
2023/08/17 02:19:43;;;;;;;32.37;6.03;;;29.00;52.30;;;;;;5039197;28;20227;-73
2023/08/17 02:22:10;;;;;;;23.43;5.53;;;29.00;52.30;;;;;;5047512;28;20591;-72
2023/08/17 02:24:37;;;;;;;26.87;5.67;;;29.00;52.30;;;;;;5046912;28;20743;-74
2023/08/17 02:27:04;;;;;;;29.97;6.17;;;29.00;52.30;;;;;;5044410;28;20206;-73
2023/08/17 02:29:31;;;;;;;37.43;6.77;;;29.00;52.30;;;;;;5045636;28;20725;-74
2023/08/17 02:32:00;;;;;;;25.93;5.57;;;29.00;52.30;;;;;;5046652;28;20207;-71
2023/08/17 02:34:27;;;;;;;21.83;5.10;;;29.00;52.90;;;;;;5047037;28;20287;-71
2023/08/17 02:36:53;;;;;;;23.70;5.37;;;29.00;52.30;;;;;;5047934;28;20210;-71
2023/08/17 02:39:20;;;;;;;37.00;6.73;;;29.00;52.30;;;;;;5046015;28;20231;-72
2023/08/17 02:41:49;;;;;;;28.07;5.97;;;28.90;52.30;;;;;;5040886;28;20295;-71
2023/08/17 02:44:16;;;;;;;27.23;5.70;;;28.90;52.30;;;;;;5059541;28;20250;-71
2023/08/17 02:46:43;;;;;;;22.40;5.47;;;28.90;52.30;;;;;;5046289;28;20279;-73
2023/08/17 02:49:11;;;;;;;24.27;5.23;;;28.90;52.30;;;;;;5047805;28;20204;-72
2023/08/17 02:51:38;;;;;;;22.73;5.40;;;28.90;52.30;;;;;;5047015;28;20204;-72
2023/08/17 02:54:06;;;;;;;34.27;6.30;;;28.80;52.90;;;;;;5047219;28;20216;-72
2023/08/17 02:56:32;;;;;;;27.73;5.77;;;28.90;52.30;;;;;;5047666;28;20200;-72
2023/08/17 02:58:59;;;;;;;18.07;4.50;;;28.80;52.30;;;;;;5053871;28;21120;-71
2023/08/17 03:01:26;;;;;;;27.97;5.70;;;28.80;52.30;;;;;;5061849;28;20232;-72
2023/08/17 03:03:53;;;;;;;27.07;5.70;;;28.80;52.30;;;;;;5051396;28;20207;-71
2023/08/17 03:06:22;;;;;;;29.03;6.03;;;28.80;52.30;;;;;;5050506;28;20225;-71
2023/08/17 03:08:49;;;;;;;25.80;5.53;;;28.80;52.40;;;;;;5051449;28;20232;-72
2023/08/17 03:11:15;;;;;;;23.37;5.00;;;28.80;52.40;;;;;;5050511;28;20287;-72
2023/08/17 03:13:42;;;;;;;25.93;5.47;;;28.80;52.30;;;;;;5049422;28;20188;-71
2023/08/17 03:16:09;;;;;;;21.00;4.83;;;28.80;52.40;;;;;;5048854;28;20204;-72
2023/08/17 03:18:36;;;;;;;42.23;7.07;;;28.80;52.40;;;;;;5050237;28;20306;-71
2023/08/17 03:21:03;;;;;;;69.43;10.03;;;28.80;52.40;;;;;;5042293;28;20323;-72
2023/08/17 03:23:31;;;;;;;26.03;5.33;;;28.80;52.40;;;;;;5048814;28;20274;-72
2023/08/17 03:25:58;;;;;;;29.90;5.60;;;28.80;52.40;;;;;;5048897;28;20196;-72
2023/08/17 03:28:25;;;;;;;45.30;7.03;;;28.80;52.40;;;;;;5049895;28;20247;-72
2023/08/17 03:30:56;;;;;;;44.10;7.07;;;28.80;52.40;;;;;;5048697;28;20204;-71
2023/08/17 03:33:23;;;;;;;36.77;6.47;;;28.70;52.40;;;;;;5049713;28;20231;-71
2023/08/17 03:35:50;;;;;;;43.60;7.03;;;28.70;52.40;;;;;;5049692;28;20199;-72
2023/08/17 03:38:17;;;;;;;31.73;5.93;;;28.80;52.40;;;;;;5046155;28;20207;-72
2023/08/17 03:40:45;;;;;;;62.30;8.77;;;28.70;52.40;;;;;;5046875;28;20314;-72
2023/08/17 03:43:12;;;;;;;36.20;6.40;;;28.70;52.40;;;;;;5045129;28;20281;-72
2023/08/17 03:45:41;;;;;;;23.97;5.67;;;28.70;52.40;;;;;;5048652;28;20291;-72
2023/08/17 03:48:08;;;;;;;21.33;5.20;;;28.70;52.40;;;;;;5048569;28;20283;-72
2023/08/17 03:50:35;;;;;;;42.00;6.93;;;28.70;52.40;;;;;;5048913;28;20212;-74
2023/08/17 03:53:02;;;;;;;26.17;5.10;;;28.70;52.40;;;;;;5048689;28;20716;-72
2023/08/17 03:55:29;;;;;;;29.63;5.73;;;28.70;52.40;;;;;;5048350;28;20208;-72
2023/08/17 03:57:58;;;;;;;31.83;5.77;;;28.70;52.40;;;;;;5050051;28;20191;-72
2023/08/17 04:00:24;;;;;;;26.67;5.33;;;28.70;52.40;;;;;;5050533;28;20334;-72
2023/08/17 04:02:51;;;;;;;25.67;5.50;;;28.70;52.40;;;;;;5048045;28;20203;-73
2023/08/17 04:05:18;;;;;;;23.87;5.17;;;28.70;52.50;;;;;;5047811;28;20291;-73
2023/08/17 04:07:47;;;;;;;20.20;5.07;;;28.60;52.40;;;;;;5049917;28;20756;-74
2023/08/17 04:10:14;;;;;;;25.50;5.33;;;28.60;52.40;;;;;;5050053;28;20196;-74
2023/08/17 04:12:41;;;;;;;31.13;5.70;;;28.60;52.40;;;;;;5047654;28;20231;-74
2023/08/17 04:15:10;;;;;;;30.10;5.97;;;28.60;52.40;;;;;;5045926;28;20311;-74
2023/08/17 04:17:37;;;;;;;30.47;5.77;;;28.60;52.40;;;;;;5040905;28;20688;-73
2023/08/17 04:20:04;;;;;;;25.60;5.30;;;28.60;52.50;;;;;;5048501;28;20232;-73
2023/08/17 04:22:31;;;;;;;41.10;6.50;;;28.60;52.50;;;;;;5047248;28;20189;-73
2023/08/17 04:24:58;;;;;;;22.63;5.40;;;28.60;52.50;;;;;;5040610;28;20201;-73
2023/08/17 04:27:25;;;;;;;28.13;5.30;;;28.60;52.50;;;;;;5042256;28;20291;-74
2023/08/17 04:29:52;;;;;;;32.97;6.00;;;28.60;52.50;;;;;;5048311;28;20711;-74
2023/08/17 04:32:21;;;;;;;29.07;5.87;;;28.60;52.50;;;;;;5053097;28;20203;-74
2023/08/17 04:34:48;;;;;;;30.20;5.73;;;28.60;52.50;;;;;;5046482;28;20757;-74
2023/08/17 04:37:15;;;;;;;30.77;5.50;;;28.60;52.50;;;;;;5047719;28;20207;-74
2023/08/17 04:39:43;;;;;;;32.83;6.10;;;28.60;52.50;;;;;;5047945;28;20287;-74
2023/08/17 04:42:10;;;;;;;35.17;6.20;;;28.50;52.50;;;;;;5048622;28;20196;-73
2023/08/17 04:44:37;;;;;;;27.27;5.40;;;28.60;52.50;;;;;;5048012;28;20258;-72
2023/08/17 04:47:05;;;;;;;29.52;6.03;;;28.60;52.60;;;;;;5048503;28;20436;-74
2023/08/17 04:49:33;;;;;;;23.40;5.33;;;28.50;52.90;;;;;;5049251;28;20200;-73
2023/08/17 04:52:03;;;;;;;26.17;5.43;;;28.50;52.90;;;;;;5049109;28;20234;-74
2023/08/17 04:54:30;;;;;;;26.30;5.47;;;28.50;52.80;;;;;;5048329;28;20214;-71
2023/08/17 04:56:57;;;;;;;38.10;6.47;;;28.50;52.60;;;;;;5048062;28;20263;-76
2023/08/17 04:59:24;;;;;;;28.37;5.87;;;28.50;52.60;;;;;;5049270;28;20261;-75
2023/08/17 05:01:52;;;;;;;48.53;7.47;;;28.60;52.60;;;;;;5048392;28;20695;-73
2023/08/17 05:04:19;;;;;;;20.40;5.10;;;28.50;52.50;;;;;;5047769;28;20193;-75
2023/08/17 05:06:47;;;;;;;32.10;6.13;;;28.50;52.50;;;;;;5048470;28;20296;-75
2023/08/17 05:09:14;;;;;;;31.77;6.30;;;28.50;53.10;;;;;;5048458;28;20283;-74
2023/08/17 05:11:41;;;;;;;26.70;5.47;;;28.60;52.60;;;;;;5048731;28;20278;-75
2023/08/17 05:14:08;;;;;;;20.63;4.90;;;28.50;52.50;;;;;;5048736;28;20226;-74
2023/08/17 05:16:35;;;;;;;17.63;4.57;;;28.50;52.50;;;;;;5043248;28;20503;-74
2023/08/17 05:19:02;;;;;;;28.67;5.57;;;28.50;52.50;;;;;;5042223;28;20723;-75
2023/08/17 05:21:29;;;;;;;21.43;5.07;;;28.50;52.50;;;;;;5047083;28;20712;-75
2023/08/17 05:23:58;;;;;;;25.83;5.40;;;28.50;52.50;;;;;;5047420;28;20313;-71
2023/08/17 05:26:25;;;;;;;23.43;5.20;;;28.50;52.50;;;;;;5046428;28;20232;-72
2023/08/17 05:28:52;;;;;;;22.60;5.10;;;28.50;52.50;;;;;;5040193;28;20228;-71
2023/08/17 05:31:19;;;;;;;27.37;5.60;;;28.50;52.60;;;;;;5033856;28;20201;-71
2023/08/17 05:33:46;;;;;;;42.47;6.80;;;28.50;52.60;;;;;;5028528;28;20301;-71
2023/08/17 05:36:14;;;;;;;25.93;5.87;;;28.50;52.60;;;;;;5044588;28;20714;-71
2023/08/17 05:38:41;;;;;;;18.60;4.53;;;28.40;52.50;;;;;;5045676;28;20578;-71
2023/08/17 05:41:09;;;;;;;37.17;6.47;;;28.50;52.60;;;;;;5045295;28;21064;-73
2023/08/17 05:43:36;;;;;;;26.10;5.13;;;28.40;52.60;;;;;;5042299;28;20208;-72
2023/08/17 05:46:03;;;;;;;28.53;5.63;;;28.40;52.60;;;;;;5047426;28;20287;-73
2023/08/17 05:48:30;;;;;;;28.37;5.47;;;28.40;52.60;;;;;;5047411;28;20203;-72
2023/08/17 05:50:57;;;;;;;30.27;6.27;;;28.40;52.60;;;;;;5048433;28;20665;-72
2023/08/17 05:53:24;;;;;;;60.30;8.50;;;28.40;52.60;;;;;;5044774;28;20202;-72
2023/08/17 05:55:51;;;;;;;29.10;5.73;;;28.40;52.70;;;;;;5048405;28;20681;-72
2023/08/17 05:58:20;;;;;;;24.73;5.47;;;28.40;52.70;;;;;;5048329;28;20287;-72
2023/08/17 06:00:47;;;;;;;25.80;5.23;;;28.40;52.70;;;;;;5048866;28;20762;-72
2023/08/17 06:03:13;;;;;;;28.43;5.43;;;28.40;52.70;;;;;;5047271;28;20283;-72
2023/08/17 06:05:41;;;;;;;28.20;5.60;;;28.40;52.70;;;;;;5047167;28;20204;-73
2023/08/17 06:08:08;;;;;;;30.50;5.93;;;28.40;52.80;;;;;;5047798;28;20193;-73
2023/08/17 06:10:35;;;;;;;20.23;5.13;;;28.40;52.80;;;;;;5046724;28;20208;-72
2023/08/17 06:13:02;;;;;;;26.63;5.47;;;28.40;52.80;;;;;;5047182;28;20246;-73
2023/08/17 06:15:30;;;;;;;24.87;5.30;;;28.40;52.80;;;;;;5047558;28;20309;-73
2023/08/17 06:17:57;;;;;;;18.33;4.83;;;28.40;52.80;;;;;;5045195;28;20199;-72
2023/08/17 06:20:24;;;;;;;24.73;5.40;;;28.40;52.80;;;;;;5042349;28;20331;-72
2023/08/17 06:22:50;;;;;;;26.53;5.27;;;28.30;52.80;;;;;;5047314;28;20287;-73
2023/08/17 06:25:17;;;;;;;25.70;5.50;;;28.40;52.80;;;;;;5048129;28;20231;-74
2023/08/17 06:27:44;;;;;;;23.53;5.23;;;28.40;52.80;;;;;;5048375;28;20244;-72
2023/08/17 06:30:13;;;;;;;29.40;5.67;;;28.40;52.80;;;;;;5047905;28;20207;-73
2023/08/17 06:32:41;;;;;;;18.73;4.37;;;28.30;52.70;;;;;;5051434;28;20196;-75
2023/08/17 06:35:09;;;;;;;33.07;5.97;;;28.40;52.80;;;;;;5047277;28;20202;-73
2023/08/17 06:37:36;;;;;;;25.83;5.07;;;28.40;52.80;;;;;;5048945;28;20207;-73
2023/08/17 06:40:05;;;;;;;26.53;5.27;;;28.40;52.80;;;;;;5051397;28;20218;-72
2023/08/17 06:42:32;;;;;;;41.03;6.67;;;28.40;52.80;;;;;;5050477;28;20243;-71
2023/08/17 06:44:59;;;;;;;31.67;6.10;;;28.30;53.30;;;;;;5048337;28;20207;-72
2023/08/17 06:47:26;;;;;;;26.30;5.37;;;28.40;52.80;;;;;;5050457;28;20204;-72
2023/08/17 06:49:57;;;;;;;29.87;6.53;;;28.30;52.70;;;;;;5050444;28;20281;-72
2023/08/17 06:52:24;;;;;;;33.53;6.47;;;28.40;52.80;;;;;;5048537;28;20200;-71
2023/08/17 06:54:51;;;;;;;30.93;6.27;;;28.40;52.80;;;;;;5051769;28;20207;-71
2023/08/17 06:57:18;;;;;;;30.33;6.37;;;28.30;52.70;;;;;;5051761;28;20758;-72
2023/08/17 06:59:46;;;;;;;31.63;6.40;;;28.40;52.80;;;;;;5051739;28;20551;-73
2023/08/17 07:02:13;;;;;;;35.63;7.00;;;28.40;52.80;;;;;;5048993;28;20254;-73
2023/08/17 07:04:40;;;;;;;28.97;6.43;;;28.40;52.80;;;;;;5050428;28;20203;-74
2023/08/17 07:07:08;;;;;;;35.60;7.70;;;28.40;52.90;;;;;;5049573;28;20219;-74
2023/08/17 07:09:35;;;;;;;46.37;8.77;;;28.30;52.70;;;;;;5032587;28;20213;-72
2023/08/17 07:12:02;;;;;;;38.73;9.63;;;28.30;52.80;;;;;;5050390;28;20204;-80
2023/08/17 07:14:29;;;;;;;37.47;9.10;;;28.40;52.80;;;;;;5048769;28;20690;-69
2023/08/17 07:16:56;;;;;;;27.50;8.10;;;28.40;52.80;;;;;;5051280;28;20203;-73
2023/08/17 07:19:23;;;;;;;40.93;8.27;;;28.40;52.80;;;;;;5049699;28;20203;-74
2023/08/17 07:21:50;;;;;;;26.43;7.23;;;28.40;52.80;;;;;;5049235;28;20224;-75
2023/08/17 07:24:18;;;;;;;34.23;7.97;;;28.40;52.80;;;;;;5050817;28;20292;-75
2023/08/17 07:26:46;;;;;;;48.90;8.93;;;28.40;52.80;;;;;;5047639;28;20291;-76
2023/08/17 07:29:13;;;;;;;44.70;8.57;;;28.40;52.80;;;;;;5031593;28;20197;-76
2023/08/17 07:31:40;;;;;;;28.30;7.83;;;28.40;52.80;;;;;;5045836;28;20283;-75
2023/08/17 07:34:07;;;;;;;37.83;7.77;;;28.40;52.80;;;;;;5050339;28;20259;-73
2023/08/17 07:36:35;;;;;;;31.77;7.00;;;28.40;52.80;;;;;;5030669;28;20280;-73
2023/08/17 07:39:02;;;;;;;29.90;7.07;;;28.40;52.80;;;;;;5037058;28;21060;-73
2023/08/17 07:41:30;;;;;;;32.17;7.20;;;28.40;52.80;;;;;;5048048;28;20322;-76
2023/08/17 07:43:57;;;;;;;33.03;7.30;;;28.40;52.80;;;;;;5049682;28;20204;-75
2023/08/17 07:46:24;;;;;;;48.40;8.43;;;28.40;52.80;;;;;;5048251;28;20228;-73
2023/08/17 07:48:51;;;;;;;31.07;6.97;;;28.40;52.80;;;;;;5049370;28;20242;-73
2023/08/17 07:51:18;;;;;;;26.90;6.37;;;28.40;52.80;;;;;;5031453;28;20304;-74
2023/08/17 07:53:45;;;;;;;27.80;6.67;;;28.40;52.80;;;;;;5030673;28;20295;-74
2023/08/17 07:56:12;;;;;;;33.30;7.33;;;28.40;52.80;;;;;;5046806;28;20290;-76
2023/08/17 07:58:40;;;;;;;31.63;6.83;;;28.50;53.50;;;;;;5050152;28;20258;-74
2023/08/17 08:01:07;;;;;;;31.40;7.03;;;28.50;52.90;;;;;;5049369;28;20717;-77
2023/08/17 08:03:34;;;;;;;31.57;7.07;;;28.50;53.50;;;;;;5048775;28;20287;-73
2023/08/17 08:06:01;;;;;;;23.30;6.67;;;28.50;52.90;;;;;;5049838;28;20242;-75
2023/08/17 08:08:28;;;;;;;32.10;6.93;;;28.50;52.90;;;;;;5049701;28;20242;-75
2023/08/17 08:10:55;;;;;;;28.90;6.90;;;28.50;52.90;;;;;;5049268;28;20200;-73
2023/08/17 08:13:22;;;;;;;31.87;6.90;;;28.50;52.90;;;;;;5048492;28;20204;-73
2023/08/17 08:15:50;;;;;;;27.27;6.30;;;28.60;53.00;;;;;;5049076;28;20218;-73
2023/08/17 08:18:17;;;;;;;35.47;7.27;;;28.60;53.10;;;;;;5047552;28;20211;-74
2023/08/17 08:20:44;;;;;;;35.90;7.90;;;28.60;53.10;;;;;;5048390;28;20226;-74
2023/08/17 08:23:11;;;;;;;38.93;7.57;;;28.60;53.10;;;;;;5047923;28;20258;-73
2023/08/17 08:25:38;;;;;;;32.70;7.10;;;28.60;53.70;;;;;;5049393;28;20860;-73
2023/08/17 08:28:05;;;;;;;24.27;6.23;;;28.70;53.10;;;;;;5068721;28;20198;-75
2023/08/17 08:30:32;;;;;;;28.27;6.67;;;28.70;53.20;;;;;;5061282;28;20200;-74
2023/08/17 08:33:01;;;;;;;73.87;10.23;;;28.70;53.10;;;;;;5045133;28;20282;-74
2023/08/17 08:35:29;;;;;;;27.03;6.30;;;28.70;53.20;;;;;;5046187;28;20283;-74
2023/08/17 08:37:58;;;;;;;29.50;6.77;;;28.70;53.20;;;;;;5048215;28;20212;-74
2023/08/17 08:40:29;;;;;;;37.07;7.20;;;28.80;53.80;;;;;;5049073;28;20196;-73
2023/08/17 08:42:56;;;;;;;39.87;8.20;;;28.80;53.30;;;;;;5048758;28;20971;-74
2023/08/17 08:45:24;;;;;;;35.37;7.77;;;28.80;53.30;;;;;;5047891;28;20224;-74
2023/08/17 08:47:53;;;;;;;37.23;7.80;;;28.80;53.40;;;;;;5068194;28;20257;-73
2023/08/17 08:50:22;;;;;;;23.93;6.07;;;28.90;53.60;;;;;;5062224;28;20283;-74
2023/08/17 08:52:59;;;;;;;27.87;6.57;;;28.90;53.70;;;;;;5049443;28;20212;-73
2023/08/17 08:55:29;;;;;;;29.37;7.07;;;29.00;53.90;;;;;;5047166;28;20207;-73
2023/08/17 08:57:58;;;;;;;22.70;5.90;;;29.00;53.90;;;;;;5049059;28;20208;-74
2023/08/17 09:00:26;;;;;;;36.00;7.30;;;29.00;54.00;;;;;;5048783;28;20208;-74
2023/08/17 09:02:53;;;;;;;27.80;6.50;;;29.00;54.00;;;;;;5057857;28;20318;-74
2023/08/17 09:05:22;;;;;;;29.77;7.23;;;29.10;54.10;;;;;;5069131;28;20289;-74
2023/08/17 09:07:50;;;;;;;27.33;6.60;;;29.20;54.20;;;;;;5052487;28;20662;-73
2023/08/17 09:10:17;;;;;;;28.03;6.50;;;29.20;54.20;;;;;;5048105;28;20191;-73
2023/08/17 09:12:46;;;;;;;35.87;7.27;;;29.20;54.10;;;;;;5048877;28;20304;-74
2023/08/17 09:15:13;;;;;;;28.47;6.40;;;29.30;54.10;;;;;;5048038;28;20731;-73
2023/08/17 09:17:40;;;;;;;33.37;6.90;;;29.30;54.10;;;;;;5047412;28;20200;-73
2023/08/17 09:20:09;;;;;;;21.63;5.83;;;29.30;54.00;;;;;;5047525;28;20279;-73
2023/08/17 09:22:41;;;;;;;24.10;5.83;;;29.40;54.00;;;;;;5046261;28;20244;-74
2023/08/17 09:25:09;;;;;;;30.37;6.83;;;29.50;54.10;;;;;;5048049;28;20297;-74
2023/08/17 09:27:37;;;;;;;28.63;6.13;;;29.50;54.00;;;;;;5045340;28;20200;-73
2023/08/17 09:30:06;;;;;;;32.17;6.93;;;29.60;54.00;;;;;;5039250;28;20287;-73
2023/08/17 09:32:33;;;;;;;27.10;6.67;;;29.60;54.00;;;;;;5047967;28;20581;-73
2023/08/17 09:35:03;;;;;;;22.50;5.63;;;29.60;53.90;;;;;;5047828;28;20207;-74
2023/08/17 09:37:30;;;;;;;23.13;5.67;;;29.60;53.90;;;;;;5047775;28;20219;-73
2023/08/17 09:39:58;;;;;;;26.00;5.87;;;29.70;53.80;;;;;;5047361;28;20294;-73
2023/08/17 09:42:27;;;;;;;27.55;5.82;;;29.70;54.40;;;;;;5046380;28;20727;-74
2023/08/17 09:44:55;;;;;;;30.03;6.23;;;29.80;53.70;;;;;;5047304;28;20227;-73
2023/08/17 09:47:23;;;;;;;30.20;6.27;;;29.80;53.70;;;;;;5047713;28;20203;-74
2023/08/17 09:49:50;;;;;;;26.33;5.90;;;29.80;53.70;;;;;;5046907;28;20215;-73
2023/08/17 09:52:17;;;;;;;40.97;7.53;;;29.90;53.70;;;;;;5041520;28;20196;-73
2023/08/17 09:54:46;;;;;;;29.00;6.63;;;29.90;53.70;;;;;;5045889;28;20682;-74
2023/08/17 09:57:15;;;;;;;41.40;7.40;;;30.00;53.80;;;;;;5043834;28;20200;-73
2023/08/17 09:59:41;;;;;;;27.20;5.77;;;30.00;53.80;;;;;;5044142;28;20230;-73
2023/08/17 10:04:07;;;;;;;34.50;6.57;;;30.10;53.30;;;;;;5059573;28;20574;-71
2023/08/17 10:06:36;;;;;;;35.13;6.87;;;30.10;53.80;;;;;;5054799;28;20231;-70
2023/08/17 10:09:03;;;;;;;31.70;6.27;;;30.10;53.80;;;;;;5055675;28;20313;-71
2023/08/17 10:11:34;;;;;;;33.80;6.83;;;30.20;54.40;;;;;;5063318;28;20307;-74
2023/08/17 10:14:05;;;;;;;42.27;7.10;;;30.20;53.80;;;;;;5057470;28;20207;-69
2023/08/17 10:16:39;;;;;;;31.90;6.40;;;30.30;53.80;;;;;;5064501;28;20203;-73
2023/08/17 10:19:14;;;;;;;27.17;5.87;;;30.30;53.80;;;;;;5065005;28;20295;-77
2023/08/17 10:21:46;;;;;;;27.27;5.80;;;30.30;53.70;;;;;;5059615;28;20235;-80
2023/08/17 10:24:13;;;;;;;28.07;6.07;;;30.30;53.60;;;;;;5062720;28;20203;-75
2023/08/17 10:26:41;;;;;;;28.60;6.07;;;30.30;53.60;;;;;;5065078;28;20294;-68
2023/08/17 10:29:08;;;;;;;31.77;6.23;;;30.40;53.60;;;;;;5064469;28;20200;-75
2023/08/17 10:31:35;;;;;;;30.63;6.50;;;30.40;53.60;;;;;;5060516;28;20579;-72
2023/08/17 10:34:03;;;;;;;40.30;7.20;;;30.40;53.60;;;;;;5062069;28;20211;-74
2023/08/17 10:36:32;;;;;;;31.03;6.30;;;30.40;53.70;;;;;;5063202;28;20242;-75
2023/08/17 10:39:24;;;;;;;29.60;6.47;;;30.40;53.60;;;;;;5063300;28;20210;-77
2023/08/17 10:41:52;;;;;;;33.07;6.27;;;30.50;53.70;;;;;;5057060;28;20232;-72
2023/08/17 10:44:39;;;;;;;24.33;5.40;;;30.50;54.20;;;;;;5063979;28;20291;-68
2023/08/17 10:47:20;;;;;;;33.87;6.70;;;30.50;53.60;;;;;;5064190;28;20803;-71
2023/08/17 10:49:49;;;;;;;32.13;6.10;;;30.50;53.60;;;;;;5062292;28;20208;-69
2023/08/17 10:52:27;;;;;;;28.90;5.93;;;30.50;53.60;;;;;;5064025;28;20492;-69
2023/08/17 10:54:54;;;;;;;33.63;6.67;;;30.50;53.60;;;;;;5063915;28;20198;-68
2023/08/17 10:57:35;;;;;;;26.80;5.63;;;30.50;53.50;;;;;;5064109;28;20206;-69
2023/08/17 11:00:15;;;;;;;30.33;6.03;;;30.50;53.60;;;;;;5063362;28;20203;-69
2023/08/17 11:02:44;;;;;;;30.03;6.60;;;30.60;53.60;;;;;;5061831;28;20255;-69
2023/08/17 11:05:13;;;;;;;40.50;7.00;;;30.60;53.60;;;;;;5061619;28;20200;-69
2023/08/17 11:07:42;;;;;;;22.80;5.63;;;30.60;53.60;;;;;;5059222;28;20207;-73
2023/08/17 11:10:13;;;;;;;28.40;6.40;;;30.60;53.60;;;;;;5054460;28;20755;-71
2023/08/17 11:12:42;;;;;;;24.87;5.53;;;30.70;53.70;;;;;;5058080;28;20204;-74
2023/08/17 11:15:10;;;;;;;26.43;6.03;;;30.60;53.60;;;;;;5051897;28;20191;-69
2023/08/17 11:17:37;;;;;;;26.30;5.73;;;30.70;53.60;;;;;;5047805;28;20200;-70
2023/08/17 11:20:05;;;;;;;30.07;6.20;;;30.70;53.60;;;;;;5048440;28;20952;-70
2023/08/17 11:22:32;;;;;;;30.87;6.40;;;30.70;54.20;;;;;;5047836;28;20235;-69
2023/08/17 11:25:02;;;;;;;21.20;5.33;;;30.70;53.60;;;;;;5048648;28;20668;-70
2023/08/17 11:27:31;;;;;;;36.23;6.80;;;30.70;53.60;;;;;;5046964;28;20223;-71
2023/08/17 11:29:58;;;;;;;29.97;5.80;;;30.70;53.50;;;;;;5046480;28;20203;-69
2023/08/17 11:32:25;;;;;;;31.63;6.13;;;30.70;53.50;;;;;;5048260;28;20208;-70
2023/08/17 11:34:53;;;;;;;26.77;5.90;;;30.70;53.50;;;;;;5049162;28;20295;-70
2023/08/17 11:37:19;;;;;;;28.23;6.30;;;30.70;53.50;;;;;;5047710;28;20237;-70
2023/08/17 11:39:46;;;;;;;31.33;6.80;;;30.80;53.40;;;;;;5048069;28;20275;-70
2023/08/17 11:42:15;;;;;;;22.70;5.60;;;30.80;53.50;;;;;;5041045;28;20312;-70
2023/08/17 11:44:42;;;;;;;30.10;5.97;;;30.80;53.40;;;;;;5044154;28;20788;-71
2023/08/17 11:47:12;;;;;;;47.63;8.17;;;30.80;53.40;;;;;;5047203;28;20862;-70
2023/08/17 11:49:39;;;;;;;28.00;6.20;;;30.80;53.40;;;;;;5048441;28;20196;-70
2023/08/17 11:52:09;;;;;;;34.57;6.60;;;30.80;53.40;;;;;;5049500;28;20214;-71
2023/08/17 11:54:41;;;;;;;25.33;6.33;;;30.80;53.40;;;;;;5049112;28;20227;-70
2023/08/17 11:57:08;;;;;;;38.43;6.90;;;30.80;53.40;;;;;;5045818;28;20653;-68
2023/08/17 11:59:36;;;;;;;34.22;6.25;;;30.80;53.40;;;;;;5047648;28;20299;-70
2023/08/17 12:02:03;;;;;;;43.00;6.97;;;30.80;53.40;;;;;;5048095;28;20218;-70
2023/08/17 12:04:32;;;;;;;20.30;5.40;;;30.80;53.40;;;;;;5048835;28;20220;-69
2023/08/17 12:06:59;;;;;;;24.07;5.33;;;30.80;53.40;;;;;;5049036;28;20287;-71
2023/08/17 12:09:27;;;;;;;29.13;6.20;;;30.80;53.30;;;;;;5048637;28;20671;-69
2023/08/17 12:11:59;;;;;;;41.70;7.17;;;30.80;54.00;;;;;;5048040;28;20629;-72
2023/08/17 12:14:28;;;;;;;46.83;7.55;;;30.80;53.30;;;;;;5048668;28;20192;-69
2023/08/17 12:16:56;;;;;;;23.60;5.17;;;30.80;53.30;;;;;;5048595;28;20236;-70
2023/08/17 12:19:25;;;;;;;26.83;6.33;;;30.80;53.40;;;;;;5049122;28;20214;-71
2023/08/17 12:21:52;;;;;;;28.17;5.80;;;30.80;53.30;;;;;;5048582;28;20243;-70
2023/08/17 12:24:20;;;;;;;42.40;7.13;;;30.80;53.40;;;;;;5043011;28;20323;-69
2023/08/17 12:26:48;;;;;;;26.17;5.73;;;30.80;53.40;;;;;;5047925;28;20196;-69
2023/08/17 12:29:15;;;;;;;24.27;5.57;;;30.80;53.30;;;;;;5048135;28;20993;-69
2023/08/17 12:31:42;;;;;;;49.73;8.07;;;30.70;53.20;;;;;;5047150;28;20283;-69
2023/08/17 12:36:29;;;;;;;33.23;6.23;;;30.70;52.70;;;;;;5078987;28;20619;-70
2023/08/17 12:38:56;;;;;;;29.23;5.77;;;30.70;53.30;;;;;;5084293;28;20294;-71
2023/08/17 12:41:23;;;;;;;29.13;5.70;;;30.70;53.30;;;;;;5085415;28;20203;-73
2023/08/17 12:43:50;;;;;;;31.70;5.77;;;30.70;53.30;;;;;;5083982;28;20200;-72